sensor_id;sensor_type;location;lat;lon;timestamp;P1;durP1;ratioP1;P2;durP2;ratioP2
15312;SDS011;7757;52.626;4.746;2023-04-06T00:01:33;12.82;;;3.95;;
15312;SDS011;7757;52.626;4.746;2023-04-06T00:04:19;11.85;;;4.13;;
15312;SDS011;7757;52.626;4.746;2023-04-06T00:07:04;11.98;;;3.85;;
15312;SDS011;7757;52.626;4.746;2023-04-06T00:09:50;11.30;;;3.78;;
15312;SDS011;7757;52.626;4.746;2023-04-06T00:12:35;11.10;;;3.58;;
15312;SDS011;7757;52.626;4.746;2023-04-06T00:15:21;12.25;;;4.07;;
15312;SDS011;7757;52.626;4.746;2023-04-06T00:18:08;13.05;;;4.47;;
15312;SDS011;7757;52.626;4.746;2023-04-06T00:20:53;11.93;;;3.72;;
15312;SDS011;7757;52.626;4.746;2023-04-06T00:23:41;10.98;;;3.58;;
15312;SDS011;7757;52.626;4.746;2023-04-06T00:26:27;11.13;;;3.70;;
15312;SDS011;7757;52.626;4.746;2023-04-06T00:29:12;13.57;;;3.58;;
15312;SDS011;7757;52.626;4.746;2023-04-06T00:31:57;12.50;;;3.88;;
15312;SDS011;7757;52.626;4.746;2023-04-06T00:34:44;11.40;;;3.40;;
15312;SDS011;7757;52.626;4.746;2023-04-06T00:37:29;10.82;;;3.35;;
15312;SDS011;7757;52.626;4.746;2023-04-06T00:40:15;10.98;;;3.50;;
15312;SDS011;7757;52.626;4.746;2023-04-06T00:43:00;11.93;;;3.75;;
15312;SDS011;7757;52.626;4.746;2023-04-06T00:45:45;11.60;;;3.60;;
15312;SDS011;7757;52.626;4.746;2023-04-06T00:48:31;11.13;;;3.20;;
15312;SDS011;7757;52.626;4.746;2023-04-06T00:51:18;11.18;;;3.35;;
15312;SDS011;7757;52.626;4.746;2023-04-06T00:54:03;11.38;;;3.80;;
15312;SDS011;7757;52.626;4.746;2023-04-06T00:56:49;9.15;;;2.95;;
15312;SDS011;7757;52.626;4.746;2023-04-06T00:59:34;11.20;;;3.40;;
15312;SDS011;7757;52.626;4.746;2023-04-06T01:02:20;9.82;;;3.00;;
15312;SDS011;7757;52.626;4.746;2023-04-06T01:05:05;10.32;;;3.15;;
15312;SDS011;7757;52.626;4.746;2023-04-06T01:07:53;10.27;;;3.03;;
15312;SDS011;7757;52.626;4.746;2023-04-06T01:10:38;10.13;;;3.05;;
15312;SDS011;7757;52.626;4.746;2023-04-06T01:13:23;10.85;;;3.08;;
15312;SDS011;7757;52.626;4.746;2023-04-06T01:16:09;9.88;;;3.03;;
15312;SDS011;7757;52.626;4.746;2023-04-06T01:18:54;10.30;;;3.05;;
15312;SDS011;7757;52.626;4.746;2023-04-06T01:21:40;9.52;;;3.10;;
15312;SDS011;7757;52.626;4.746;2023-04-06T01:24:27;9.60;;;2.85;;
15312;SDS011;7757;52.626;4.746;2023-04-06T01:27:13;10.02;;;2.90;;
15312;SDS011;7757;52.626;4.746;2023-04-06T01:29:58;11.82;;;2.78;;
15312;SDS011;7757;52.626;4.746;2023-04-06T01:32:44;11.05;;;3.03;;
15312;SDS011;7757;52.626;4.746;2023-04-06T01:35:29;9.48;;;2.65;;
15312;SDS011;7757;52.626;4.746;2023-04-06T01:38:14;11.32;;;3.20;;
15312;SDS011;7757;52.626;4.746;2023-04-06T01:41:01;10.60;;;2.95;;
15312;SDS011;7757;52.626;4.746;2023-04-06T01:43:47;11.57;;;3.10;;
15312;SDS011;7757;52.626;4.746;2023-04-06T01:46:32;11.52;;;3.22;;
15312;SDS011;7757;52.626;4.746;2023-04-06T01:49:18;10.23;;;3.20;;
15312;SDS011;7757;52.626;4.746;2023-04-06T01:52:03;8.80;;;2.60;;
15312;SDS011;7757;52.626;4.746;2023-04-06T01:54:49;10.20;;;2.90;;
15312;SDS011;7757;52.626;4.746;2023-04-06T01:57:36;8.82;;;2.63;;
15312;SDS011;7757;52.626;4.746;2023-04-06T02:00:21;11.15;;;2.85;;
15312;SDS011;7757;52.626;4.746;2023-04-06T02:03:06;9.35;;;2.90;;
15312;SDS011;7757;52.626;4.746;2023-04-06T02:05:52;10.02;;;2.72;;
15312;SDS011;7757;52.626;4.746;2023-04-06T02:08:37;9.60;;;2.90;;
15312;SDS011;7757;52.626;4.746;2023-04-06T02:11:23;9.75;;;2.88;;
15312;SDS011;7757;52.626;4.746;2023-04-06T02:14:09;10.20;;;2.75;;
15312;SDS011;7757;52.626;4.746;2023-04-06T02:16:55;10.80;;;2.60;;
15312;SDS011;7757;52.626;4.746;2023-04-06T02:19:40;9.07;;;2.80;;
15312;SDS011;7757;52.626;4.746;2023-04-06T02:22:25;10.93;;;2.63;;
15312;SDS011;7757;52.626;4.746;2023-04-06T02:25:11;8.82;;;2.47;;
15312;SDS011;7757;52.626;4.746;2023-04-06T02:27:56;9.50;;;2.95;;
15312;SDS011;7757;52.626;4.746;2023-04-06T02:30:43;8.73;;;2.45;;
15312;SDS011;7757;52.626;4.746;2023-04-06T02:33:30;8.43;;;2.47;;
15312;SDS011;7757;52.626;4.746;2023-04-06T02:36:15;8.65;;;2.60;;
15312;SDS011;7757;52.626;4.746;2023-04-06T02:39:01;9.93;;;2.60;;
15312;SDS011;7757;52.626;4.746;2023-04-06T02:41:46;8.98;;;2.72;;
15312;SDS011;7757;52.626;4.746;2023-04-06T02:44:32;9.70;;;2.90;;
15312;SDS011;7757;52.626;4.746;2023-04-06T02:47:19;10.68;;;3.15;;
15312;SDS011;7757;52.626;4.746;2023-04-06T02:50:04;7.28;;;2.05;;
15312;SDS011;7757;52.626;4.746;2023-04-06T02:52:51;8.98;;;2.40;;
15312;SDS011;7757;52.626;4.746;2023-04-06T02:55:36;9.63;;;2.60;;
15312;SDS011;7757;52.626;4.746;2023-04-06T02:58:21;9.38;;;2.67;;
15312;SDS011;7757;52.626;4.746;2023-04-06T03:01:07;8.40;;;2.55;;
15312;SDS011;7757;52.626;4.746;2023-04-06T03:03:54;8.43;;;2.20;;
15312;SDS011;7757;52.626;4.746;2023-04-06T03:06:39;8.95;;;2.40;;
15312;SDS011;7757;52.626;4.746;2023-04-06T03:09:24;8.27;;;2.25;;
15312;SDS011;7757;52.626;4.746;2023-04-06T03:12:10;8.65;;;2.60;;
15312;SDS011;7757;52.626;4.746;2023-04-06T03:14:55;8.90;;;2.33;;
15312;SDS011;7757;52.626;4.746;2023-04-06T03:17:40;8.43;;;2.35;;
15312;SDS011;7757;52.626;4.746;2023-04-06T03:20:27;7.85;;;2.30;;
15312;SDS011;7757;52.626;4.746;2023-04-06T03:23:12;8.40;;;2.42;;
15312;SDS011;7757;52.626;4.746;2023-04-06T03:25:58;11.35;;;2.38;;
15312;SDS011;7757;52.626;4.746;2023-04-06T03:28:44;8.98;;;2.50;;
15312;SDS011;7757;52.626;4.746;2023-04-06T03:31:29;9.02;;;2.47;;
15312;SDS011;7757;52.626;4.746;2023-04-06T03:34:15;9.13;;;2.40;;
15312;SDS011;7757;52.626;4.746;2023-04-06T03:37:01;8.18;;;2.10;;
15312;SDS011;7757;52.626;4.746;2023-04-06T03:39:47;10.32;;;2.78;;
15312;SDS011;7757;52.626;4.746;2023-04-06T03:42:32;9.05;;;2.50;;
15312;SDS011;7757;52.626;4.746;2023-04-06T03:45:18;8.18;;;2.30;;
15312;SDS011;7757;52.626;4.746;2023-04-06T03:48:03;9.30;;;2.45;;
15312;SDS011;7757;52.626;4.746;2023-04-06T03:50:49;8.30;;;2.30;;
15312;SDS011;7757;52.626;4.746;2023-04-06T03:53:36;7.25;;;2.10;;
15312;SDS011;7757;52.626;4.746;2023-04-06T03:56:21;10.40;;;2.33;;
15312;SDS011;7757;52.626;4.746;2023-04-06T03:59:07;6.75;;;1.90;;
15312;SDS011;7757;52.626;4.746;2023-04-06T04:01:52;7.93;;;2.25;;
15312;SDS011;7757;52.626;4.746;2023-04-06T04:04:37;6.75;;;2.08;;
15312;SDS011;7757;52.626;4.746;2023-04-06T04:07:23;8.50;;;2.55;;
15312;SDS011;7757;52.626;4.746;2023-04-06T04:10:10;10.63;;;2.50;;
15312;SDS011;7757;52.626;4.746;2023-04-06T04:12:55;9.25;;;2.30;;
15312;SDS011;7757;52.626;4.746;2023-04-06T04:15:40;7.55;;;2.08;;
15312;SDS011;7757;52.626;4.746;2023-04-06T04:18:26;7.45;;;2.00;;
15312;SDS011;7757;52.626;4.746;2023-04-06T04:21:11;8.68;;;2.45;;
15312;SDS011;7757;52.626;4.746;2023-04-06T04:23:56;8.82;;;2.28;;
15312;SDS011;7757;52.626;4.746;2023-04-06T04:26:43;9.07;;;2.38;;
15312;SDS011;7757;52.626;4.746;2023-04-06T04:29:28;7.95;;;2.28;;
15312;SDS011;7757;52.626;4.746;2023-04-06T04:32:14;9.27;;;2.50;;
15312;SDS011;7757;52.626;4.746;2023-04-06T04:35:00;7.70;;;2.08;;
15312;SDS011;7757;52.626;4.746;2023-04-06T04:37:45;8.43;;;2.20;;
15312;SDS011;7757;52.626;4.746;2023-04-06T04:40:30;11.30;;;2.50;;
15312;SDS011;7757;52.626;4.746;2023-04-06T04:43:17;7.45;;;2.17;;
15312;SDS011;7757;52.626;4.746;2023-04-06T04:46:03;9.32;;;2.40;;
15312;SDS011;7757;52.626;4.746;2023-04-06T04:48:49;9.20;;;2.60;;
15312;SDS011;7757;52.626;4.746;2023-04-06T04:51:34;8.73;;;2.25;;
15312;SDS011;7757;52.626;4.746;2023-04-06T04:54:20;8.02;;;2.20;;
15312;SDS011;7757;52.626;4.746;2023-04-06T04:57:05;8.65;;;2.22;;
15312;SDS011;7757;52.626;4.746;2023-04-06T04:59:52;8.77;;;2.10;;
15312;SDS011;7757;52.626;4.746;2023-04-06T05:02:37;10.23;;;2.30;;
15312;SDS011;7757;52.626;4.746;2023-04-06T05:05:23;8.35;;;2.25;;
15312;SDS011;7757;52.626;4.746;2023-04-06T05:08:08;8.30;;;2.22;;
15312;SDS011;7757;52.626;4.746;2023-04-06T05:10:53;8.95;;;2.22;;
15312;SDS011;7757;52.626;4.746;2023-04-06T05:13:39;9.63;;;2.20;;
15312;SDS011;7757;52.626;4.746;2023-04-06T05:16:25;8.82;;;2.42;;
15312;SDS011;7757;52.626;4.746;2023-04-06T05:19:11;8.55;;;2.10;;
15312;SDS011;7757;52.626;4.746;2023-04-06T05:21:56;6.55;;;1.85;;
15312;SDS011;7757;52.626;4.746;2023-04-06T05:24:41;8.07;;;2.13;;
15312;SDS011;7757;52.626;4.746;2023-04-06T05:27:27;7.78;;;2.33;;
15312;SDS011;7757;52.626;4.746;2023-04-06T05:30:12;9.70;;;2.60;;
15312;SDS011;7757;52.626;4.746;2023-04-06T05:33:00;8.10;;;2.20;;
15312;SDS011;7757;52.626;4.746;2023-04-06T05:35:45;6.80;;;1.85;;
15312;SDS011;7757;52.626;4.746;2023-04-06T05:38:30;7.30;;;2.10;;
15312;SDS011;7757;52.626;4.746;2023-04-06T05:41:17;8.27;;;2.03;;
15312;SDS011;7757;52.626;4.746;2023-04-06T05:44:02;7.72;;;1.80;;
15312;SDS011;7757;52.626;4.746;2023-04-06T05:46:48;7.63;;;2.05;;
15312;SDS011;7757;52.626;4.746;2023-04-06T05:49:35;7.45;;;2.10;;
15312;SDS011;7757;52.626;4.746;2023-04-06T05:52:20;7.53;;;2.00;;
15312;SDS011;7757;52.626;4.746;2023-04-06T05:55:06;9.23;;;2.30;;
15312;SDS011;7757;52.626;4.746;2023-04-06T05:57:51;7.22;;;2.00;;
15312;SDS011;7757;52.626;4.746;2023-04-06T06:00:37;7.82;;;2.10;;
15312;SDS011;7757;52.626;4.746;2023-04-06T06:03:22;7.05;;;1.90;;
15312;SDS011;7757;52.626;4.746;2023-04-06T06:06:09;9.55;;;2.10;;
15312;SDS011;7757;52.626;4.746;2023-04-06T06:08:54;7.88;;;2.28;;
15312;SDS011;7757;52.626;4.746;2023-04-06T06:11:41;9.00;;;2.22;;
15312;SDS011;7757;52.626;4.746;2023-04-06T06:14:27;10.25;;;2.22;;
15312;SDS011;7757;52.626;4.746;2023-04-06T06:17:13;7.03;;;2.00;;
15312;SDS011;7757;52.626;4.746;2023-04-06T06:19:59;7.15;;;1.88;;
15312;SDS011;7757;52.626;4.746;2023-04-06T06:22:45;7.78;;;1.77;;
15312;SDS011;7757;52.626;4.746;2023-04-06T06:25:31;8.32;;;2.10;;
15312;SDS011;7757;52.626;4.746;2023-04-06T06:28:16;7.32;;;1.85;;
15312;SDS011;7757;52.626;4.746;2023-04-06T06:31:02;7.15;;;1.95;;
15312;SDS011;7757;52.626;4.746;2023-04-06T06:33:47;7.88;;;1.95;;
15312;SDS011;7757;52.626;4.746;2023-04-06T06:36:34;10.88;;;1.95;;
15312;SDS011;7757;52.626;4.746;2023-04-06T06:39:21;8.00;;;1.90;;
15312;SDS011;7757;52.626;4.746;2023-04-06T06:42:06;6.63;;;1.88;;
15312;SDS011;7757;52.626;4.746;2023-04-06T06:44:52;8.43;;;1.85;;
15312;SDS011;7757;52.626;4.746;2023-04-06T06:47:39;7.55;;;1.92;;
15312;SDS011;7757;52.626;4.746;2023-04-06T06:50:24;6.82;;;1.80;;
15312;SDS011;7757;52.626;4.746;2023-04-06T06:53:10;6.88;;;1.80;;
15312;SDS011;7757;52.626;4.746;2023-04-06T06:55:56;7.65;;;1.90;;
15312;SDS011;7757;52.626;4.746;2023-04-06T06:58:42;8.73;;;1.92;;
15312;SDS011;7757;52.626;4.746;2023-04-06T07:01:27;6.57;;;1.80;;
15312;SDS011;7757;52.626;4.746;2023-04-06T07:04:12;7.88;;;1.85;;
15312;SDS011;7757;52.626;4.746;2023-04-06T07:06:58;6.55;;;1.83;;
15312;SDS011;7757;52.626;4.746;2023-04-06T07:09:43;6.40;;;1.73;;
15312;SDS011;7757;52.626;4.746;2023-04-06T07:12:30;6.78;;;1.90;;
15312;SDS011;7757;52.626;4.746;2023-04-06T07:15:15;8.63;;;1.95;;
15312;SDS011;7757;52.626;4.746;2023-04-06T07:18:00;7.55;;;2.03;;
15312;SDS011;7757;52.626;4.746;2023-04-06T07:20:46;8.15;;;1.90;;
15312;SDS011;7757;52.626;4.746;2023-04-06T07:23:31;7.03;;;1.80;;
15312;SDS011;7757;52.626;4.746;2023-04-06T07:26:17;8.15;;;2.00;;
15312;SDS011;7757;52.626;4.746;2023-04-06T07:29:04;7.20;;;1.90;;
15312;SDS011;7757;52.626;4.746;2023-04-06T07:31:49;7.13;;;1.80;;
15312;SDS011;7757;52.626;4.746;2023-04-06T07:34:34;6.47;;;1.98;;
15312;SDS011;7757;52.626;4.746;2023-04-06T07:37:20;7.22;;;1.80;;
15312;SDS011;7757;52.626;4.746;2023-04-06T07:40:05;6.82;;;1.98;;
15312;SDS011;7757;52.626;4.746;2023-04-06T07:42:51;6.28;;;1.70;;
15312;SDS011;7757;52.626;4.746;2023-04-06T07:45:38;6.95;;;1.90;;
15312;SDS011;7757;52.626;4.746;2023-04-06T07:48:23;7.28;;;1.90;;
15312;SDS011;7757;52.626;4.746;2023-04-06T07:51:09;5.82;;;1.77;;
15312;SDS011;7757;52.626;4.746;2023-04-06T07:53:58;8.23;;;1.85;;
15312;SDS011;7757;52.626;4.746;2023-04-06T07:56:43;8.43;;;2.00;;
15312;SDS011;7757;52.626;4.746;2023-04-06T07:59:28;6.78;;;1.90;;
15312;SDS011;7757;52.626;4.746;2023-04-06T08:02:15;7.15;;;1.95;;
15312;SDS011;7757;52.626;4.746;2023-04-06T08:05:00;5.40;;;1.63;;
15312;SDS011;7757;52.626;4.746;2023-04-06T08:07:46;6.68;;;1.60;;
15312;SDS011;7757;52.626;4.746;2023-04-06T08:10:31;7.07;;;2.00;;
15312;SDS011;7757;52.626;4.746;2023-04-06T08:13:18;6.05;;;1.70;;
15312;SDS011;7757;52.626;4.746;2023-04-06T08:16:03;8.07;;;1.90;;
15312;SDS011;7757;52.626;4.746;2023-04-06T08:18:52;7.05;;;2.05;;
15312;SDS011;7757;52.626;4.746;2023-04-06T08:21:37;7.05;;;1.88;;
15312;SDS011;7757;52.626;4.746;2023-04-06T08:24:23;7.80;;;2.42;;
15312;SDS011;7757;52.626;4.746;2023-04-06T08:27:08;8.13;;;2.00;;
15312;SDS011;7757;52.626;4.746;2023-04-06T08:29:54;6.65;;;1.88;;
15312;SDS011;7757;52.626;4.746;2023-04-06T08:32:39;8.50;;;2.13;;
15312;SDS011;7757;52.626;4.746;2023-04-06T08:35:27;8.00;;;2.00;;
15312;SDS011;7757;52.626;4.746;2023-04-06T08:38:12;8.02;;;2.15;;
15312;SDS011;7757;52.626;4.746;2023-04-06T08:40:58;10.48;;;2.78;;
15312;SDS011;7757;52.626;4.746;2023-04-06T08:43:43;9.10;;;2.60;;
15312;SDS011;7757;52.626;4.746;2023-04-06T08:46:31;10.57;;;2.40;;
15312;SDS011;7757;52.626;4.746;2023-04-06T08:49:17;10.32;;;2.70;;
15312;SDS011;7757;52.626;4.746;2023-04-06T08:52:04;10.48;;;2.60;;
15312;SDS011;7757;52.626;4.746;2023-04-06T08:54:51;9.75;;;2.70;;
15312;SDS011;7757;52.626;4.746;2023-04-06T08:57:36;15.98;;;2.67;;
15312;SDS011;7757;52.626;4.746;2023-04-06T09:00:23;8.57;;;2.45;;
15312;SDS011;7757;52.626;4.746;2023-04-06T09:03:13;8.95;;;2.30;;
15312;SDS011;7757;52.626;4.746;2023-04-06T09:05:59;12.52;;;3.00;;
15312;SDS011;7757;52.626;4.746;2023-04-06T09:08:46;10.98;;;2.50;;
15312;SDS011;7757;52.626;4.746;2023-04-06T09:11:40;10.52;;;2.70;;
15312;SDS011;7757;52.626;4.746;2023-04-06T09:14:34;10.68;;;2.88;;
15312;SDS011;7757;52.626;4.746;2023-04-06T09:17:20;8.98;;;2.65;;
15312;SDS011;7757;52.626;4.746;2023-04-06T09:20:06;9.35;;;2.53;;
15312;SDS011;7757;52.626;4.746;2023-04-06T09:22:52;11.38;;;3.03;;
15312;SDS011;7757;52.626;4.746;2023-04-06T09:25:38;9.43;;;2.80;;
15312;SDS011;7757;52.626;4.746;2023-04-06T09:28:23;9.82;;;2.80;;
15312;SDS011;7757;52.626;4.746;2023-04-06T09:31:09;10.90;;;2.58;;
15312;SDS011;7757;52.626;4.746;2023-04-06T09:33:55;8.98;;;2.90;;
15312;SDS011;7757;52.626;4.746;2023-04-06T09:36:41;8.95;;;2.50;;
15312;SDS011;7757;52.626;4.746;2023-04-06T09:39:26;9.60;;;2.83;;
15312;SDS011;7757;52.626;4.746;2023-04-06T09:42:22;10.15;;;2.88;;
15312;SDS011;7757;52.626;4.746;2023-04-06T09:45:08;9.43;;;2.38;;
15312;SDS011;7757;52.626;4.746;2023-04-06T09:47:54;10.50;;;2.90;;
15312;SDS011;7757;52.626;4.746;2023-04-06T09:50:40;9.93;;;2.63;;
15312;SDS011;7757;52.626;4.746;2023-04-06T09:53:26;10.45;;;2.53;;
15312;SDS011;7757;52.626;4.746;2023-04-06T09:56:16;9.35;;;2.83;;
15312;SDS011;7757;52.626;4.746;2023-04-06T09:59:08;9.18;;;2.65;;
15312;SDS011;7757;52.626;4.746;2023-04-06T10:01:59;10.65;;;2.70;;
15312;SDS011;7757;52.626;4.746;2023-04-06T10:30:00;10.47;;;3.00;;
15312;SDS011;7757;52.626;4.746;2023-04-06T10:32:46;12.02;;;3.50;;
15312;SDS011;7757;52.626;4.746;2023-04-06T10:35:38;11.00;;;3.20;;
15312;SDS011;7757;52.626;4.746;2023-04-06T10:38:32;11.13;;;3.40;;
15312;SDS011;7757;52.626;4.746;2023-04-06T10:41:18;9.98;;;3.28;;
15312;SDS011;7757;52.626;4.746;2023-04-06T10:44:04;11.77;;;3.10;;
15312;SDS011;7757;52.626;4.746;2023-04-06T10:46:54;12.02;;;3.55;;
15312;SDS011;7757;52.626;4.746;2023-04-06T10:49:40;13.05;;;3.42;;
15312;SDS011;7757;52.626;4.746;2023-04-06T10:52:26;12.15;;;3.10;;
15312;SDS011;7757;52.626;4.746;2023-04-06T10:55:11;11.88;;;3.38;;
15312;SDS011;7757;52.626;4.746;2023-04-06T10:57:58;11.15;;;3.55;;
15312;SDS011;7757;52.626;4.746;2023-04-06T11:00:44;11.25;;;2.90;;
15312;SDS011;7757;52.626;4.746;2023-04-06T11:03:31;10.38;;;3.20;;
15312;SDS011;7757;52.626;4.746;2023-04-06T11:06:21;9.63;;;2.80;;
15312;SDS011;7757;52.626;4.746;2023-04-06T11:09:07;9.68;;;3.15;;
15312;SDS011;7757;52.626;4.746;2023-04-06T11:11:53;10.85;;;3.00;;
15312;SDS011;7757;52.626;4.746;2023-04-06T11:14:39;10.75;;;3.10;;
15312;SDS011;7757;52.626;4.746;2023-04-06T11:17:25;10.43;;;3.13;;
15312;SDS011;7757;52.626;4.746;2023-04-06T11:20:12;10.50;;;3.35;;
15312;SDS011;7757;52.626;4.746;2023-04-06T11:22:58;13.55;;;3.45;;
15312;SDS011;7757;52.626;4.746;2023-04-06T11:25:49;10.75;;;3.20;;
15312;SDS011;7757;52.626;4.746;2023-04-06T11:28:35;10.98;;;3.28;;
15312;SDS011;7757;52.626;4.746;2023-04-06T11:31:20;12.82;;;3.45;;
15312;SDS011;7757;52.626;4.746;2023-04-06T11:34:11;10.52;;;3.20;;
15312;SDS011;7757;52.626;4.746;2023-04-06T11:37:00;9.00;;;2.67;;
15312;SDS011;7757;52.626;4.746;2023-04-06T11:39:49;10.70;;;2.92;;
15312;SDS011;7757;52.626;4.746;2023-04-06T11:42:35;10.52;;;3.00;;
15312;SDS011;7757;52.626;4.746;2023-04-06T11:45:21;11.57;;;3.20;;
15312;SDS011;7757;52.626;4.746;2023-04-06T11:48:16;11.73;;;2.80;;
15312;SDS011;7757;52.626;4.746;2023-04-06T11:51:03;11.63;;;2.80;;
15312;SDS011;7757;52.626;4.746;2023-04-06T11:53:50;10.20;;;2.90;;
15312;SDS011;7757;52.626;4.746;2023-04-06T11:56:35;10.77;;;2.70;;
15312;SDS011;7757;52.626;4.746;2023-04-06T11:59:20;9.45;;;2.70;;
15312;SDS011;7757;52.626;4.746;2023-04-06T12:02:06;9.98;;;3.10;;
15312;SDS011;7757;52.626;4.746;2023-04-06T12:04:51;9.43;;;2.40;;
15312;SDS011;7757;52.626;4.746;2023-04-06T12:07:37;10.13;;;2.80;;
15312;SDS011;7757;52.626;4.746;2023-04-06T12:10:24;10.48;;;3.45;;
15312;SDS011;7757;52.626;4.746;2023-04-06T12:13:09;8.90;;;2.72;;
15312;SDS011;7757;52.626;4.746;2023-04-06T12:15:54;8.65;;;2.63;;
15312;SDS011;7757;52.626;4.746;2023-04-06T12:18:40;8.35;;;2.30;;
15312;SDS011;7757;52.626;4.746;2023-04-06T12:21:26;9.23;;;2.40;;
15312;SDS011;7757;52.626;4.746;2023-04-06T12:24:11;9.15;;;2.65;;
15312;SDS011;7757;52.626;4.746;2023-04-06T12:26:58;8.88;;;2.53;;
15312;SDS011;7757;52.626;4.746;2023-04-06T12:29:45;8.70;;;2.40;;
15312;SDS011;7757;52.626;4.746;2023-04-06T12:32:30;9.38;;;2.85;;
15312;SDS011;7757;52.626;4.746;2023-04-06T12:35:15;10.98;;;2.85;;
15312;SDS011;7757;52.626;4.746;2023-04-06T12:38:01;11.45;;;2.80;;
15312;SDS011;7757;52.626;4.746;2023-04-06T12:40:46;10.05;;;2.47;;
15312;SDS011;7757;52.626;4.746;2023-04-06T12:43:33;10.43;;;2.40;;
15312;SDS011;7757;52.626;4.746;2023-04-06T12:46:19;10.18;;;2.70;;
15312;SDS011;7757;52.626;4.746;2023-04-06T12:49:04;10.75;;;2.22;;
15312;SDS011;7757;52.626;4.746;2023-04-06T12:51:50;6.80;;;2.28;;
15312;SDS011;7757;52.626;4.746;2023-04-06T12:54:35;9.68;;;2.53;;
15312;SDS011;7757;52.626;4.746;2023-04-06T12:57:20;9.15;;;2.33;;
15312;SDS011;7757;52.626;4.746;2023-04-06T13:00:08;10.20;;;2.30;;
15312;SDS011;7757;52.626;4.746;2023-04-06T13:02:54;8.05;;;2.20;;
15312;SDS011;7757;52.626;4.746;2023-04-06T13:05:43;8.63;;;2.15;;
15312;SDS011;7757;52.626;4.746;2023-04-06T13:08:28;7.25;;;2.15;;
15312;SDS011;7757;52.626;4.746;2023-04-06T13:11:13;6.75;;;2.03;;
15312;SDS011;7757;52.626;4.746;2023-04-06T13:13:58;9.18;;;2.40;;
15312;SDS011;7757;52.626;4.746;2023-04-06T13:16:45;8.27;;;2.00;;
15312;SDS011;7757;52.626;4.746;2023-04-06T13:19:30;7.88;;;2.28;;
15312;SDS011;7757;52.626;4.746;2023-04-06T13:22:16;8.35;;;2.22;;
15312;SDS011;7757;52.626;4.746;2023-04-06T13:25:01;8.38;;;2.17;;
15312;SDS011;7757;52.626;4.746;2023-04-06T13:27:47;8.52;;;2.00;;
15312;SDS011;7757;52.626;4.746;2023-04-06T13:30:32;8.82;;;1.90;;
15312;SDS011;7757;52.626;4.746;2023-04-06T13:33:19;8.85;;;2.20;;
15312;SDS011;7757;52.626;4.746;2023-04-06T13:36:04;7.75;;;2.10;;
15312;SDS011;7757;52.626;4.746;2023-04-06T13:38:51;6.65;;;1.95;;
15312;SDS011;7757;52.626;4.746;2023-04-06T13:41:38;7.13;;;1.90;;
15312;SDS011;7757;52.626;4.746;2023-04-06T13:44:24;8.32;;;2.25;;
15312;SDS011;7757;52.626;4.746;2023-04-06T13:47:10;11.10;;;2.10;;
15312;SDS011;7757;52.626;4.746;2023-04-06T13:49:57;8.07;;;2.08;;
15312;SDS011;7757;52.626;4.746;2023-04-06T13:52:42;9.85;;;2.45;;
15312;SDS011;7757;52.626;4.746;2023-04-06T13:55:27;7.65;;;1.90;;
15312;SDS011;7757;52.626;4.746;2023-04-06T13:58:13;7.32;;;2.08;;
15312;SDS011;7757;52.626;4.746;2023-04-06T14:01:01;10.20;;;2.17;;
15312;SDS011;7757;52.626;4.746;2023-04-06T14:03:48;7.15;;;1.90;;
15312;SDS011;7757;52.626;4.746;2023-04-06T14:06:34;8.43;;;2.08;;
15312;SDS011;7757;52.626;4.746;2023-04-06T14:09:20;10.13;;;2.20;;
15312;SDS011;7757;52.626;4.746;2023-04-06T14:12:05;7.43;;;2.00;;
15312;SDS011;7757;52.626;4.746;2023-04-06T14:14:50;7.00;;;1.92;;
15312;SDS011;7757;52.626;4.746;2023-04-06T14:17:36;10.57;;;2.00;;
15312;SDS011;7757;52.626;4.746;2023-04-06T14:20:21;9.75;;;2.03;;
15312;SDS011;7757;52.626;4.746;2023-04-06T14:23:08;6.63;;;2.00;;
15312;SDS011;7757;52.626;4.746;2023-04-06T14:26:00;9.02;;;2.08;;
15312;SDS011;7757;52.626;4.746;2023-04-06T14:28:47;8.10;;;2.08;;
15312;SDS011;7757;52.626;4.746;2023-04-06T14:31:33;7.13;;;1.90;;
15312;SDS011;7757;52.626;4.746;2023-04-06T14:34:19;7.15;;;1.90;;
15312;SDS011;7757;52.626;4.746;2023-04-06T14:37:04;7.85;;;1.80;;
15312;SDS011;7757;52.626;4.746;2023-04-06T14:39:52;6.80;;;1.80;;
15312;SDS011;7757;52.626;4.746;2023-04-06T14:42:37;8.40;;;1.90;;
15312;SDS011;7757;52.626;4.746;2023-04-06T14:45:22;6.40;;;1.80;;
15312;SDS011;7757;52.626;4.746;2023-04-06T14:48:08;9.75;;;2.00;;
15312;SDS011;7757;52.626;4.746;2023-04-06T14:50:55;8.15;;;2.03;;
15312;SDS011;7757;52.626;4.746;2023-04-06T14:53:40;10.73;;;2.10;;
15312;SDS011;7757;52.626;4.746;2023-04-06T14:56:28;8.43;;;1.98;;
15312;SDS011;7757;52.626;4.746;2023-04-06T14:59:14;5.30;;;1.63;;
15312;SDS011;7757;52.626;4.746;2023-04-06T15:02:00;9.68;;;1.95;;
15312;SDS011;7757;52.626;4.746;2023-04-06T15:04:46;7.68;;;1.80;;
15312;SDS011;7757;52.626;4.746;2023-04-06T15:07:31;9.35;;;1.83;;
15312;SDS011;7757;52.626;4.746;2023-04-06T15:10:17;12.40;;;2.10;;
15312;SDS011;7757;52.626;4.746;2023-04-06T15:13:03;7.53;;;1.50;;
15312;SDS011;7757;52.626;4.746;2023-04-06T15:15:49;7.90;;;2.03;;
15312;SDS011;7757;52.626;4.746;2023-04-06T15:18:35;6.93;;;1.88;;
15312;SDS011;7757;52.626;4.746;2023-04-06T15:21:20;6.03;;;1.73;;
15312;SDS011;7757;52.626;4.746;2023-04-06T15:24:06;8.48;;;1.98;;
15312;SDS011;7757;52.626;4.746;2023-04-06T15:26:52;8.23;;;1.90;;
15312;SDS011;7757;52.626;4.746;2023-04-06T15:29:38;6.82;;;1.90;;
15312;SDS011;7757;52.626;4.746;2023-04-06T15:32:24;12.43;;;1.90;;
15312;SDS011;7757;52.626;4.746;2023-04-06T15:35:09;7.35;;;1.83;;
15312;SDS011;7757;52.626;4.746;2023-04-06T15:37:55;7.38;;;2.03;;
15312;SDS011;7757;52.626;4.746;2023-04-06T15:40:44;7.28;;;2.03;;
15312;SDS011;7757;52.626;4.746;2023-04-06T15:43:30;6.05;;;1.80;;
15312;SDS011;7757;52.626;4.746;2023-04-06T15:46:17;8.15;;;1.80;;
15312;SDS011;7757;52.626;4.746;2023-04-06T15:49:02;6.50;;;1.70;;
15312;SDS011;7757;52.626;4.746;2023-04-06T15:51:47;9.07;;;2.08;;
15312;SDS011;7757;52.626;4.746;2023-04-06T15:54:33;8.15;;;1.85;;
15312;SDS011;7757;52.626;4.746;2023-04-06T15:57:19;9.30;;;1.90;;
15312;SDS011;7757;52.626;4.746;2023-04-06T16:00:05;12.40;;;2.00;;
15312;SDS011;7757;52.626;4.746;2023-04-06T16:02:53;6.03;;;1.60;;
15312;SDS011;7757;52.626;4.746;2023-04-06T16:05:39;7.15;;;1.70;;
15312;SDS011;7757;52.626;4.746;2023-04-06T16:08:25;9.23;;;1.90;;
15312;SDS011;7757;52.626;4.746;2023-04-06T16:11:11;7.47;;;2.00;;
15312;SDS011;7757;52.626;4.746;2023-04-06T16:13:56;8.15;;;1.80;;
15312;SDS011;7757;52.626;4.746;2023-04-06T16:16:41;7.38;;;1.98;;
15312;SDS011;7757;52.626;4.746;2023-04-06T16:19:28;6.97;;;1.77;;
15312;SDS011;7757;52.626;4.746;2023-04-06T16:22:13;7.88;;;1.95;;
15312;SDS011;7757;52.626;4.746;2023-04-06T16:24:59;8.55;;;2.03;;
15312;SDS011;7757;52.626;4.746;2023-04-06T16:27:44;6.40;;;1.83;;
15312;SDS011;7757;52.626;4.746;2023-04-06T16:30:29;8.73;;;1.92;;
15312;SDS011;7757;52.626;4.746;2023-04-06T16:33:15;6.05;;;1.77;;
15312;SDS011;7757;52.626;4.746;2023-04-06T16:36:03;5.28;;;1.75;;
15312;SDS011;7757;52.626;4.746;2023-04-06T16:38:49;6.82;;;1.77;;
15312;SDS011;7757;52.626;4.746;2023-04-06T16:41:34;8.93;;;1.77;;
15312;SDS011;7757;52.626;4.746;2023-04-06T16:44:20;6.30;;;1.70;;
15312;SDS011;7757;52.626;4.746;2023-04-06T16:47:05;8.30;;;2.15;;
15312;SDS011;7757;52.626;4.746;2023-04-06T16:49:51;7.18;;;1.80;;
15312;SDS011;7757;52.626;4.746;2023-04-06T16:52:39;5.90;;;1.52;;
15312;SDS011;7757;52.626;4.746;2023-04-06T16:55:25;7.25;;;1.65;;
15312;SDS011;7757;52.626;4.746;2023-04-06T16:58:10;6.60;;;1.70;;
15312;SDS011;7757;52.626;4.746;2023-04-06T17:00:55;6.80;;;1.67;;
15312;SDS011;7757;52.626;4.746;2023-04-06T17:03:43;6.75;;;1.92;;
15312;SDS011;7757;52.626;4.746;2023-04-06T17:06:29;6.57;;;1.70;;
15312;SDS011;7757;52.626;4.746;2023-04-06T17:09:16;5.30;;;1.60;;
15312;SDS011;7757;52.626;4.746;2023-04-06T17:12:02;7.30;;;1.60;;
15312;SDS011;7757;52.626;4.746;2023-04-06T17:14:47;6.78;;;1.58;;
15312;SDS011;7757;52.626;4.746;2023-04-06T17:17:32;6.35;;;1.60;;